Tunica, MS

3:15 PM CDT on August 21, 2017 (GMT -0500)
Tunica

Weather History for KUTA - March, 2013

Change the Weather History Date:

Tuesday, March 26, 2013

  Actual Average (KAWM) Record (KAWM)
Temperature  
Mean Temperature 39 °F -  
Max Temperature 46 °F 61 °F 81 °F (2007)
Min Temperature 32 °F 43 °F 27 °F (2014)
Degree Days  
Heating Degree Days 26    
Moisture  
Dew Point 27 °F    
Average Humidity 67    
Maximum Humidity 87    
Minimum Humidity 46    
Precipitation  
Precipitation 0.00 in - - ()
Sea Level Pressure  
Sea Level Pressure 30.36 in    
Wind  
Wind Speed 10 mph (NW)    
Max Wind Speed 20 mph    
Max Gust Speed 22 mph    
Visibility 10 miles    
Events      
Averages and records for this station are not official NWS values.
T = Trace of Precipitation, MM = Missing Value Source: NWS Daily Summary

Daily Weather History Graph

Daily Weather History Graph

Search for Another Location

Airport or City:

Trip Planner

Search our weather history database for the weather conditions in past years. The results will help you decide how hot, cold, wet, or windy it might be!

Date:

Astronomy

Mar. 26, 2013 Rise Set
Actual Time 6:56 AM CDT 7:18 PM CDT
Civil Twilight 6:31 AM CDT 7:43 PM CDT
Nautical Twilight 6:01 AM CDT 8:12 PM CDT
Astronomical Twilight 5:31 AM CDT 8:43 PM CDT
Moon 6:54 PM CDT (3/26) 6:12 AM CDT (3/26)
Length of Visible Light 13h 12m
Length of Day
12h 21m
Waxing Gibbous, 99% of the Moon is Illuminated
Mar 26
Waxing Gibbous
Mar 27
Full
Apr 2
Last Quarter
Apr 10
New
Apr 18
First Quarter

Hourly Weather History & Observations

Time (CDT) Temp. Windchill Dew Point Humidity Pressure Visibility Wind Dir Wind Speed Gust Speed Precip Events Conditions
12:15 AM 35.6 °F 26.6 °F 26.6 °F 70% 30.30 in 10.0 mi NW 13.8 mph - N/A   Overcast
12:35 AM 35.6 °F 25.9 °F 26.6 °F 70% 30.30 in 10.0 mi WNW 16.1 mph 21.9 mph N/A   Overcast
12:55 AM 35.6 °F 24.8 °F 21.2 °F 56% 30.30 in 10.0 mi NW 19.6 mph - N/A   Scattered Clouds
1:15 AM 33.8 °F 24.3 °F 23.0 °F 65% 30.31 in 10.0 mi NW 13.8 mph - N/A   Clear
1:55 AM 33.8 °F 24.3 °F 21.2 °F 60% 30.30 in 10.0 mi NW 13.8 mph - N/A   Clear
2:15 AM 33.8 °F 26.4 °F 23.0 °F 65% 30.30 in 10.0 mi NW 9.2 mph - N/A   Clear
2:55 AM 32.0 °F 24.2 °F 23.0 °F 69% 30.30 in 10.0 mi NW 9.2 mph - N/A   Clear
3:15 AM 32.0 °F 24.2 °F 23.0 °F 69% 30.30 in 10.0 mi WNW 9.2 mph - N/A   Clear
3:35 AM 32.0 °F 24.2 °F 23.0 °F 69% 30.29 in 10.0 mi WNW 9.2 mph - N/A   Clear
3:55 AM 32.0 °F 23.0 °F 23.0 °F 69% 30.29 in 10.0 mi WNW 11.5 mph - N/A   Clear
4:15 AM 32.0 °F 24.2 °F 24.8 °F 75% 30.30 in 10.0 mi WNW 9.2 mph - N/A   Clear
4:35 AM 32.0 °F 24.2 °F 24.8 °F 75% 30.30 in 10.0 mi WNW 9.2 mph - N/A   Clear
4:55 AM 32.0 °F 23.0 °F 24.8 °F 75% 30.30 in 10.0 mi NW 11.5 mph - N/A   Scattered Clouds
5:15 AM 32.0 °F 24.2 °F 24.8 °F 75% 30.31 in 10.0 mi WNW 9.2 mph - N/A   Scattered Clouds
5:35 AM 32.0 °F 24.8 °F 24.8 °F 75% 30.31 in 10.0 mi NW 8.1 mph - N/A   Clear
5:55 AM 32.0 °F 24.2 °F 26.6 °F 80% 30.31 in 10.0 mi WNW 9.2 mph - N/A   Clear
6:15 AM 32.0 °F 24.8 °F 26.6 °F 80% 30.31 in 10.0 mi NW 8.1 mph - N/A   Clear
6:35 AM 32.0 °F 24.2 °F 26.6 °F 80% 30.32 in 10.0 mi NW 9.2 mph - N/A   Scattered Clouds
6:55 AM 32.0 °F 24.2 °F 26.6 °F 80% 30.33 in 10.0 mi WNW 9.2 mph - N/A   Mostly Cloudy
7:15 AM 32.0 °F 24.8 °F 26.6 °F 80% 30.33 in 10.0 mi WNW 8.1 mph - N/A   Scattered Clouds
7:35 AM 32.0 °F 24.8 °F 26.6 °F 80% 30.34 in 10.0 mi NW 8.1 mph - N/A   Clear
7:55 AM 32.0 °F 24.2 °F 26.6 °F 80% 30.35 in 10.0 mi NW 9.2 mph - N/A   Clear
8:15 AM 33.8 °F 25.8 °F 28.4 °F 81% 30.36 in 10.0 mi NW 10.4 mph - N/A   Clear
8:35 AM 33.8 °F 24.3 °F 28.4 °F 81% 30.37 in 10.0 mi NW 13.8 mph 17.3 mph N/A   Clear
8:55 AM 35.6 °F 26.2 °F 28.4 °F 75% 30.37 in 10.0 mi NW 15.0 mph 18.4 mph N/A   Clear
9:15 AM 35.6 °F 26.6 °F 28.4 °F 75% 30.38 in 10.0 mi NW 13.8 mph - N/A   Clear
9:35 AM 37.4 °F 30.3 °F 28.4 °F 70% 30.39 in 10.0 mi NW 10.4 mph - N/A   Clear
9:55 AM 37.4 °F 30.8 °F 28.4 °F 70% 30.40 in 10.0 mi NNW 9.2 mph 18.4 mph N/A   Scattered Clouds
10:15 AM 37.4 °F 28.9 °F 28.4 °F 70% 30.40 in 10.0 mi NNW 13.8 mph 19.6 mph N/A   Mostly Cloudy
10:35 AM 39.2 °F 31.6 °F 30.2 °F 70% 30.40 in 10.0 mi NW 12.7 mph - N/A   Scattered Clouds
10:55 AM 41.0 °F 34.7 °F 28.4 °F 61% 30.40 in 10.0 mi NW 10.4 mph - N/A   Scattered Clouds
11:15 AM 41.0 °F 34.3 °F 28.4 °F 61% 30.40 in 10.0 mi North 11.5 mph - N/A   Scattered Clouds
11:35 AM 41.0 °F 35.8 °F 28.4 °F 61% 30.41 in 10.0 mi WNW 8.1 mph - N/A   Scattered Clouds
11:55 AM 42.8 °F 37.0 °F 30.2 °F 61% 30.41 in 10.0 mi NNW 10.4 mph 17.3 mph N/A   Mostly Cloudy
12:15 PM 41.0 °F 34.3 °F 30.2 °F 65% 30.41 in 10.0 mi NW 11.5 mph - N/A   Mostly Cloudy
12:35 PM 42.8 °F 38.6 °F 28.4 °F 57% 30.40 in 10.0 mi NW 6.9 mph 17.3 mph N/A   Mostly Cloudy
12:55 PM 41.0 °F 35.8 °F 28.4 °F 61% 30.40 in 10.0 mi NW 8.1 mph - N/A   Mostly Cloudy
1:15 PM 42.8 °F 37.5 °F 28.4 °F 57% 30.40 in 10.0 mi North 9.2 mph - N/A   Overcast
1:35 PM 42.8 °F 38.0 °F 26.6 °F 53% 30.40 in 10.0 mi NNW 8.1 mph - N/A   Overcast
1:55 PM 42.8 °F 37.0 °F 28.4 °F 57% 30.39 in 10.0 mi NW 10.4 mph - N/A   Mostly Cloudy
2:15 PM 42.8 °F 39.3 °F 26.6 °F 53% 30.39 in 10.0 mi NW 5.8 mph - N/A   Mostly Cloudy
2:35 PM 44.6 °F 40.2 °F 26.6 °F 49% 30.38 in 10.0 mi North 8.1 mph - N/A   Mostly Cloudy
2:55 PM 44.6 °F 39.7 °F 26.6 °F 49% 30.38 in 10.0 mi WNW 9.2 mph - N/A   Mostly Cloudy
3:15 PM 44.6 °F 39.2 °F 28.4 °F 53% 30.38 in 10.0 mi North 10.4 mph - N/A   Mostly Cloudy
3:35 PM 44.6 °F 38.8 °F 26.6 °F 49% 30.38 in 10.0 mi NW 11.5 mph - N/A   Mostly Cloudy
3:55 PM 44.6 °F 38.8 °F 26.6 °F 49% 30.37 in 10.0 mi NW 11.5 mph - N/A   Scattered Clouds
4:15 PM 46.4 °F 44.3 °F 28.4 °F 50% 30.37 in 10.0 mi NW 4.6 mph - N/A   Mostly Cloudy
4:35 PM 44.6 °F 39.7 °F 28.4 °F 53% 30.36 in 10.0 mi WNW 9.2 mph - N/A   Mostly Cloudy
4:55 PM 46.4 °F 41.5 °F 28.4 °F 50% 30.36 in 10.0 mi NNW 10.4 mph - N/A   Mostly Cloudy
5:15 PM 46.4 °F 44.3 °F 26.6 °F 46% 30.36 in 10.0 mi West 4.6 mph - N/A   Mostly Cloudy
5:55 PM 44.6 °F 40.2 °F 26.6 °F 49% 30.36 in 10.0 mi NW 8.1 mph - N/A   Scattered Clouds
6:15 PM 44.6 °F 40.7 °F 24.8 °F 46% 30.36 in 10.0 mi NW 6.9 mph - N/A   Clear
6:35 PM 44.6 °F 42.2 °F 26.6 °F 49% 30.36 in 10.0 mi NNW 4.6 mph - N/A   Clear
6:55 PM 42.8 °F 39.3 °F 26.6 °F 53% 30.37 in 10.0 mi NW 5.8 mph - N/A   Scattered Clouds
7:15 PM 42.8 °F 40.1 °F 26.6 °F 53% 30.37 in 10.0 mi WNW 4.6 mph - N/A   Clear
7:35 PM 41.0 °F 38.0 °F 26.6 °F 57% 30.37 in 10.0 mi North 4.6 mph - N/A   Clear
7:55 PM 41.0 °F 39.0 °F 30.2 °F 65% 30.38 in 10.0 mi North 3.5 mph - N/A   Clear
8:15 PM 37.4 °F - 32.0 °F 81% 30.38 in 10.0 mi Calm Calm - N/A   Clear
8:35 PM 39.2 °F - 32.0 °F 75% 30.38 in 10.0 mi Calm Calm - N/A   Clear
8:55 PM 37.4 °F - 30.2 °F 75% 30.38 in 10.0 mi Calm Calm - N/A   Clear
9:15 PM 37.4 °F 34.9 °F 32.0 °F 81% 30.38 in 10.0 mi ESE 3.5 mph - N/A   Clear
9:35 PM 37.4 °F - 30.2 °F 75% 30.39 in 10.0 mi Calm Calm - N/A   Clear
9:55 PM 35.6 °F 32.8 °F 32.0 °F 87% 30.39 in 10.0 mi SE 3.5 mph - N/A   Clear
10:15 PM 35.6 °F 32.8 °F 32.0 °F 87% 30.40 in 10.0 mi SSE 3.5 mph - N/A   Clear
10:35 PM 35.6 °F 31.7 °F 32.0 °F 87% 30.39 in 10.0 mi SSE 4.6 mph - N/A   Clear
10:55 PM 35.6 °F 31.7 °F 30.2 °F 81% 30.39 in 10.0 mi SSE 4.6 mph - N/A   Clear
11:15 PM 33.8 °F 30.8 °F 30.2 °F 87% 30.39 in 10.0 mi South 3.5 mph - N/A   Clear
11:35 PM 33.8 °F - 30.2 °F 87% 30.39 in 10.0 mi Calm Calm - N/A   Clear
11:55 PM 33.8 °F 30.8 °F 30.2 °F 87% 30.39 in 10.0 mi SSE 3.5 mph - N/A   Clear